sensor_id;sensor_type;location;lat;lon;timestamp;P1;durP1;ratioP1;P2;durP2;ratioP2
77417;SDS011;66490;51.484;0.026;2023-03-01T00:00:25;13.57;;;7.47;;
77417;SDS011;66490;51.484;0.026;2023-03-01T00:02:51;13.38;;;7.20;;
77417;SDS011;66490;51.484;0.026;2023-03-01T00:05:16;11.20;;;7.13;;
77417;SDS011;66490;51.484;0.026;2023-03-01T00:07:41;11.17;;;6.97;;
77417;SDS011;66490;51.484;0.026;2023-03-01T00:10:06;11.10;;;6.97;;
77417;SDS011;66490;51.484;0.026;2023-03-01T00:12:32;11.70;;;7.80;;
77417;SDS011;66490;51.484;0.026;2023-03-01T00:14:57;13.53;;;7.77;;
77417;SDS011;66490;51.484;0.026;2023-03-01T00:17:23;13.47;;;7.77;;
77417;SDS011;66490;51.484;0.026;2023-03-01T00:19:48;13.60;;;8.03;;
77417;SDS011;66490;51.484;0.026;2023-03-01T00:22:13;14.20;;;8.47;;
77417;SDS011;66490;51.484;0.026;2023-03-01T00:24:38;12.27;;;7.93;;
77417;SDS011;66490;51.484;0.026;2023-03-01T00:27:04;13.63;;;7.13;;
77417;SDS011;66490;51.484;0.026;2023-03-01T00:29:29;14.93;;;7.90;;
77417;SDS011;66490;51.484;0.026;2023-03-01T00:31:54;12.43;;;7.40;;
77417;SDS011;66490;51.484;0.026;2023-03-01T00:34:20;12.07;;;7.80;;
77417;SDS011;66490;51.484;0.026;2023-03-01T00:36:45;15.30;;;9.13;;
77417;SDS011;66490;51.484;0.026;2023-03-01T00:39:11;13.37;;;7.80;;
77417;SDS011;66490;51.484;0.026;2023-03-01T00:41:37;12.60;;;8.30;;
77417;SDS011;66490;51.484;0.026;2023-03-01T00:44:03;13.13;;;8.68;;
77417;SDS011;66490;51.484;0.026;2023-03-01T00:46:28;11.93;;;8.03;;
77417;SDS011;66490;51.484;0.026;2023-03-01T00:48:55;14.05;;;8.05;;
77417;SDS011;66490;51.484;0.026;2023-03-01T00:51:21;13.67;;;7.40;;
77417;SDS011;66490;51.484;0.026;2023-03-01T00:53:47;14.05;;;7.85;;
77417;SDS011;66490;51.484;0.026;2023-03-01T00:56:13;14.20;;;7.67;;
77417;SDS011;66490;51.484;0.026;2023-03-01T00:58:39;14.85;;;8.25;;
77417;SDS011;66490;51.484;0.026;2023-03-01T01:01:11;12.95;;;7.38;;
77417;SDS011;66490;51.484;0.026;2023-03-01T01:03:43;14.73;;;7.67;;
77417;SDS011;66490;51.484;0.026;2023-03-01T01:06:12;12.70;;;8.05;;
77417;SDS011;66490;51.484;0.026;2023-03-01T01:08:38;12.68;;;8.23;;
77417;SDS011;66490;51.484;0.026;2023-03-01T01:11:03;14.47;;;7.77;;
77417;SDS011;66490;51.484;0.026;2023-03-01T01:13:28;13.93;;;8.53;;
77417;SDS011;66490;51.484;0.026;2023-03-01T01:15:54;15.70;;;8.47;;
77417;SDS011;66490;51.484;0.026;2023-03-01T01:18:19;14.70;;;8.70;;
77417;SDS011;66490;51.484;0.026;2023-03-01T01:21:04;12.10;;;7.80;;
77417;SDS011;66490;51.484;0.026;2023-03-01T01:23:29;16.05;;;7.47;;
77417;SDS011;66490;51.484;0.026;2023-03-01T01:25:55;14.93;;;7.47;;
77417;SDS011;66490;51.484;0.026;2023-03-01T01:28:20;10.77;;;5.73;;
77417;SDS011;66490;51.484;0.026;2023-03-01T01:30:45;8.50;;;4.33;;
77417;SDS011;66490;51.484;0.026;2023-03-01T01:33:10;8.80;;;3.00;;
77417;SDS011;66490;51.484;0.026;2023-03-01T01:35:36;9.13;;;3.70;;
77417;SDS011;66490;51.484;0.026;2023-03-01T01:38:01;8.23;;;3.33;;
77417;SDS011;66490;51.484;0.026;2023-03-01T01:40:26;7.60;;;3.60;;
77417;SDS011;66490;51.484;0.026;2023-03-01T01:42:52;14.30;;;4.90;;
77417;SDS011;66490;51.484;0.026;2023-03-01T01:45:28;9.67;;;3.90;;
77417;SDS011;66490;51.484;0.026;2023-03-01T01:47:54;7.78;;;3.60;;
77417;SDS011;66490;51.484;0.026;2023-03-01T01:50:20;8.50;;;3.30;;
77417;SDS011;66490;51.484;0.026;2023-03-01T01:52:46;7.73;;;3.10;;
77417;SDS011;66490;51.484;0.026;2023-03-01T01:55:17;6.38;;;2.83;;
77417;SDS011;66490;51.484;0.026;2023-03-01T01:57:47;7.10;;;2.85;;
77417;SDS011;66490;51.484;0.026;2023-03-01T02:02:39;8.38;;;3.75;;
77417;SDS011;66490;51.484;0.026;2023-03-01T02:05:08;9.13;;;3.27;;
77417;SDS011;66490;51.484;0.026;2023-03-01T02:07:35;10.00;;;3.03;;
77417;SDS011;66490;51.484;0.026;2023-03-01T02:10:01;6.07;;;2.58;;
77417;SDS011;66490;51.484;0.026;2023-03-01T02:12:27;7.17;;;2.30;;
77417;SDS011;66490;51.484;0.026;2023-03-01T02:14:52;7.70;;;2.30;;
77417;SDS011;66490;51.484;0.026;2023-03-01T02:17:18;5.47;;;2.65;;
77417;SDS011;66490;51.484;0.026;2023-03-01T02:22:18;7.07;;;3.33;;
77417;SDS011;66490;51.484;0.026;2023-03-01T02:27:17;7.88;;;2.58;;
77417;SDS011;66490;51.484;0.026;2023-03-01T02:29:47;9.30;;;2.50;;
77417;SDS011;66490;51.484;0.026;2023-03-01T02:32:12;9.93;;;3.30;;
77417;SDS011;66490;51.484;0.026;2023-03-01T02:34:38;7.90;;;2.70;;
77417;SDS011;66490;51.484;0.026;2023-03-01T02:37:05;6.97;;;2.85;;
77417;SDS011;66490;51.484;0.026;2023-03-01T02:39:39;8.10;;;3.40;;
77417;SDS011;66490;51.484;0.026;2023-03-01T02:42:07;7.83;;;2.53;;
77417;SDS011;66490;51.484;0.026;2023-03-01T02:44:35;4.95;;;2.53;;
77417;SDS011;66490;51.484;0.026;2023-03-01T02:47:00;5.53;;;2.63;;
77417;SDS011;66490;51.484;0.026;2023-03-01T02:49:28;6.85;;;2.15;;
77417;SDS011;66490;51.484;0.026;2023-03-01T02:54:26;5.95;;;3.08;;
77417;SDS011;66490;51.484;0.026;2023-03-01T02:56:53;7.95;;;2.95;;
77417;SDS011;66490;51.484;0.026;2023-03-01T02:59:20;7.33;;;2.83;;
77417;SDS011;66490;51.484;0.026;2023-03-01T03:01:47;5.85;;;2.20;;
77417;SDS011;66490;51.484;0.026;2023-03-01T03:04:14;6.27;;;2.33;;
77417;SDS011;66490;51.484;0.026;2023-03-01T03:06:43;7.38;;;2.40;;
77417;SDS011;66490;51.484;0.026;2023-03-01T03:09:09;9.35;;;2.83;;
77417;SDS011;66490;51.484;0.026;2023-03-01T03:11:34;7.70;;;2.80;;
77417;SDS011;66490;51.484;0.026;2023-03-01T03:14:01;6.75;;;2.47;;
77417;SDS011;66490;51.484;0.026;2023-03-01T03:16:27;6.30;;;2.03;;
77417;SDS011;66490;51.484;0.026;2023-03-01T03:18:54;5.20;;;2.20;;
77417;SDS011;66490;51.484;0.026;2023-03-01T03:21:20;6.70;;;2.60;;
77417;SDS011;66490;51.484;0.026;2023-03-01T03:23:45;7.80;;;2.07;;
77417;SDS011;66490;51.484;0.026;2023-03-01T03:26:10;5.97;;;3.13;;
77417;SDS011;66490;51.484;0.026;2023-03-01T03:28:38;6.35;;;2.50;;
77417;SDS011;66490;51.484;0.026;2023-03-01T03:31:05;6.43;;;2.03;;
77417;SDS011;66490;51.484;0.026;2023-03-01T03:33:30;5.38;;;2.50;;
77417;SDS011;66490;51.484;0.026;2023-03-01T03:35:56;5.87;;;2.50;;
77417;SDS011;66490;51.484;0.026;2023-03-01T03:38:22;6.70;;;2.50;;
77417;SDS011;66490;51.484;0.026;2023-03-01T03:40:48;7.37;;;3.10;;
77417;SDS011;66490;51.484;0.026;2023-03-01T03:43:18;6.47;;;2.85;;
77417;SDS011;66490;51.484;0.026;2023-03-01T03:45:44;7.38;;;2.50;;
77417;SDS011;66490;51.484;0.026;2023-03-01T03:48:10;4.68;;;2.33;;
77417;SDS011;66490;51.484;0.026;2023-03-01T03:50:36;8.60;;;2.17;;
77417;SDS011;66490;51.484;0.026;2023-03-01T03:53:03;6.15;;;2.30;;
77417;SDS011;66490;51.484;0.026;2023-03-01T03:55:29;4.60;;;2.43;;
77417;SDS011;66490;51.484;0.026;2023-03-01T03:57:57;7.50;;;2.42;;
77417;SDS011;66490;51.484;0.026;2023-03-01T04:00:23;5.35;;;2.17;;
77417;SDS011;66490;51.484;0.026;2023-03-01T04:02:49;7.53;;;2.50;;
77417;SDS011;66490;51.484;0.026;2023-03-01T04:05:15;6.85;;;2.17;;
77417;SDS011;66490;51.484;0.026;2023-03-01T04:07:41;4.93;;;2.13;;
77417;SDS011;66490;51.484;0.026;2023-03-01T04:10:10;4.85;;;1.90;;
77417;SDS011;66490;51.484;0.026;2023-03-01T04:12:36;5.43;;;1.50;;
77417;SDS011;66490;51.484;0.026;2023-03-01T04:15:04;4.65;;;1.45;;
77417;SDS011;66490;51.484;0.026;2023-03-01T04:17:40;8.47;;;1.87;;
77417;SDS011;66490;51.484;0.026;2023-03-01T04:20:07;7.47;;;1.70;;
77417;SDS011;66490;51.484;0.026;2023-03-01T04:22:32;4.70;;;2.10;;
77417;SDS011;66490;51.484;0.026;2023-03-01T04:24:58;4.03;;;1.38;;
77417;SDS011;66490;51.484;0.026;2023-03-01T04:27:26;4.93;;;1.70;;
77417;SDS011;66490;51.484;0.026;2023-03-01T04:29:52;4.00;;;1.47;;
77417;SDS011;66490;51.484;0.026;2023-03-01T04:32:17;6.15;;;1.58;;
77417;SDS011;66490;51.484;0.026;2023-03-01T04:34:43;6.33;;;1.90;;
77417;SDS011;66490;51.484;0.026;2023-03-01T04:37:08;4.75;;;1.80;;
77417;SDS011;66490;51.484;0.026;2023-03-01T04:39:34;4.53;;;1.40;;
77417;SDS011;66490;51.484;0.026;2023-03-01T04:42:13;5.03;;;1.67;;
77417;SDS011;66490;51.484;0.026;2023-03-01T04:44:38;5.13;;;1.87;;
77417;SDS011;66490;51.484;0.026;2023-03-01T04:47:04;4.20;;;1.57;;
77417;SDS011;66490;51.484;0.026;2023-03-01T04:49:29;4.38;;;1.45;;
77417;SDS011;66490;51.484;0.026;2023-03-01T04:51:54;5.87;;;2.00;;
77417;SDS011;66490;51.484;0.026;2023-03-01T04:54:20;4.07;;;1.80;;
77417;SDS011;66490;51.484;0.026;2023-03-01T04:56:45;5.07;;;1.90;;
77417;SDS011;66490;51.484;0.026;2023-03-01T04:59:10;7.37;;;2.50;;
77417;SDS011;66490;51.484;0.026;2023-03-01T05:01:38;9.75;;;2.08;;
77417;SDS011;66490;51.484;0.026;2023-03-01T05:04:04;5.95;;;2.13;;
77417;SDS011;66490;51.484;0.026;2023-03-01T05:06:30;6.10;;;1.90;;
77417;SDS011;66490;51.484;0.026;2023-03-01T05:08:56;4.97;;;1.60;;
77417;SDS011;66490;51.484;0.026;2023-03-01T05:11:21;5.17;;;1.83;;
77417;SDS011;66490;51.484;0.026;2023-03-01T05:13:46;8.30;;;2.00;;
77417;SDS011;66490;51.484;0.026;2023-03-01T05:16:12;4.55;;;1.80;;
77417;SDS011;66490;51.484;0.026;2023-03-01T05:18:37;6.93;;;1.57;;
77417;SDS011;66490;51.484;0.026;2023-03-01T05:21:07;4.50;;;1.87;;
77417;SDS011;66490;51.484;0.026;2023-03-01T05:23:33;4.32;;;1.92;;
77417;SDS011;66490;51.484;0.026;2023-03-01T05:25:59;4.70;;;1.98;;
77417;SDS011;66490;51.484;0.026;2023-03-01T05:28:25;4.60;;;1.88;;
77417;SDS011;66490;51.484;0.026;2023-03-01T05:30:50;3.97;;;1.43;;
77417;SDS011;66490;51.484;0.026;2023-03-01T05:33:16;5.88;;;1.90;;
77417;SDS011;66490;51.484;0.026;2023-03-01T05:35:42;4.70;;;1.60;;
77417;SDS011;66490;51.484;0.026;2023-03-01T05:38:08;5.27;;;2.00;;
77417;SDS011;66490;51.484;0.026;2023-03-01T05:40:33;6.00;;;2.63;;
77417;SDS011;66490;51.484;0.026;2023-03-01T05:42:59;6.13;;;2.17;;
77417;SDS011;66490;51.484;0.026;2023-03-01T05:45:25;4.80;;;1.83;;
77417;SDS011;66490;51.484;0.026;2023-03-01T05:47:50;5.97;;;2.87;;
77417;SDS011;66490;51.484;0.026;2023-03-01T05:52:48;5.63;;;2.40;;
77417;SDS011;66490;51.484;0.026;2023-03-01T05:55:14;5.10;;;1.87;;
77417;SDS011;66490;51.484;0.026;2023-03-01T05:57:39;5.78;;;2.60;;
77417;SDS011;66490;51.484;0.026;2023-03-01T06:00:05;5.07;;;2.27;;
77417;SDS011;66490;51.484;0.026;2023-03-01T06:02:31;4.90;;;2.25;;
77417;SDS011;66490;51.484;0.026;2023-03-01T06:04:56;4.73;;;1.77;;
77417;SDS011;66490;51.484;0.026;2023-03-01T06:07:22;4.80;;;2.00;;
77417;SDS011;66490;51.484;0.026;2023-03-01T06:09:47;4.67;;;2.37;;
77417;SDS011;66490;51.484;0.026;2023-03-01T06:12:12;4.87;;;1.83;;
77417;SDS011;66490;51.484;0.026;2023-03-01T06:14:38;3.63;;;2.03;;
77417;SDS011;66490;51.484;0.026;2023-03-01T06:17:06;5.07;;;2.13;;
77417;SDS011;66490;51.484;0.026;2023-03-01T06:19:31;6.50;;;2.60;;
77417;SDS011;66490;51.484;0.026;2023-03-01T06:21:57;9.63;;;2.57;;
77417;SDS011;66490;51.484;0.026;2023-03-01T06:24:22;4.57;;;1.93;;
77417;SDS011;66490;51.484;0.026;2023-03-01T06:26:48;8.13;;;2.57;;
77417;SDS011;66490;51.484;0.026;2023-03-01T06:29:13;5.70;;;2.00;;
77417;SDS011;66490;51.484;0.026;2023-03-01T06:31:39;6.33;;;2.27;;
77417;SDS011;66490;51.484;0.026;2023-03-01T06:34:05;7.03;;;3.05;;
77417;SDS011;66490;51.484;0.026;2023-03-01T06:36:30;5.73;;;2.40;;
77417;SDS011;66490;51.484;0.026;2023-03-01T06:38:55;6.43;;;1.83;;
77417;SDS011;66490;51.484;0.026;2023-03-01T06:41:20;7.27;;;1.67;;
77417;SDS011;66490;51.484;0.026;2023-03-01T06:43:46;5.70;;;2.47;;
77417;SDS011;66490;51.484;0.026;2023-03-01T06:46:11;9.43;;;2.93;;
77417;SDS011;66490;51.484;0.026;2023-03-01T06:48:36;9.57;;;3.73;;
77417;SDS011;66490;51.484;0.026;2023-03-01T06:51:02;9.02;;;2.38;;
77417;SDS011;66490;51.484;0.026;2023-03-01T06:53:28;7.40;;;2.70;;
77417;SDS011;66490;51.484;0.026;2023-03-01T06:55:54;8.23;;;3.13;;
77417;SDS011;66490;51.484;0.026;2023-03-01T06:58:20;6.60;;;3.13;;
77417;SDS011;66490;51.484;0.026;2023-03-01T07:00:45;7.57;;;2.63;;
77417;SDS011;66490;51.484;0.026;2023-03-01T07:03:10;9.40;;;2.23;;
77417;SDS011;66490;51.484;0.026;2023-03-01T07:05:36;8.37;;;2.27;;
77417;SDS011;66490;51.484;0.026;2023-03-01T07:08:01;5.17;;;2.10;;
77417;SDS011;66490;51.484;0.026;2023-03-01T07:10:26;7.77;;;2.50;;
77417;SDS011;66490;51.484;0.026;2023-03-01T07:12:54;9.70;;;2.58;;
77417;SDS011;66490;51.484;0.026;2023-03-01T07:15:19;5.67;;;2.20;;
77417;SDS011;66490;51.484;0.026;2023-03-01T07:17:44;5.50;;;2.43;;
77417;SDS011;66490;51.484;0.026;2023-03-01T07:20:12;7.33;;;2.13;;
77417;SDS011;66490;51.484;0.026;2023-03-01T07:22:39;8.03;;;2.57;;
77417;SDS011;66490;51.484;0.026;2023-03-01T07:25:04;5.78;;;2.28;;
77417;SDS011;66490;51.484;0.026;2023-03-01T07:27:30;6.10;;;2.50;;
77417;SDS011;66490;51.484;0.026;2023-03-01T07:29:55;7.30;;;2.50;;
77417;SDS011;66490;51.484;0.026;2023-03-01T07:32:20;8.43;;;2.30;;
77417;SDS011;66490;51.484;0.026;2023-03-01T07:34:46;7.23;;;1.70;;
77417;SDS011;66490;51.484;0.026;2023-03-01T07:37:11;5.37;;;2.43;;
77417;SDS011;66490;51.484;0.026;2023-03-01T07:39:36;6.53;;;1.93;;
77417;SDS011;66490;51.484;0.026;2023-03-01T07:42:02;8.10;;;2.77;;
77417;SDS011;66490;51.484;0.026;2023-03-01T07:44:27;7.78;;;2.67;;
77417;SDS011;66490;51.484;0.026;2023-03-01T07:46:53;6.60;;;2.10;;
77417;SDS011;66490;51.484;0.026;2023-03-01T07:49:21;6.78;;;2.50;;
77417;SDS011;66490;51.484;0.026;2023-03-01T07:51:46;5.77;;;1.90;;
77417;SDS011;66490;51.484;0.026;2023-03-01T07:54:12;5.73;;;2.30;;
77417;SDS011;66490;51.484;0.026;2023-03-01T07:56:37;7.10;;;2.00;;
77417;SDS011;66490;51.484;0.026;2023-03-01T07:59:02;6.60;;;1.98;;
77417;SDS011;66490;51.484;0.026;2023-03-01T08:01:27;6.40;;;1.93;;
77417;SDS011;66490;51.484;0.026;2023-03-01T08:03:53;5.33;;;2.03;;
77417;SDS011;66490;51.484;0.026;2023-03-01T08:06:18;7.90;;;2.60;;
77417;SDS011;66490;51.484;0.026;2023-03-01T08:08:44;5.87;;;2.20;;
77417;SDS011;66490;51.484;0.026;2023-03-01T08:11:11;7.10;;;2.38;;
77417;SDS011;66490;51.484;0.026;2023-03-01T08:13:37;6.13;;;2.00;;
77417;SDS011;66490;51.484;0.026;2023-03-01T08:16:12;6.93;;;2.23;;
77417;SDS011;66490;51.484;0.026;2023-03-01T08:18:38;4.57;;;1.65;;
77417;SDS011;66490;51.484;0.026;2023-03-01T08:21:07;6.73;;;2.07;;
77417;SDS011;66490;51.484;0.026;2023-03-01T08:23:32;6.65;;;1.77;;
77417;SDS011;66490;51.484;0.026;2023-03-01T08:26:04;6.03;;;1.80;;
77417;SDS011;66490;51.484;0.026;2023-03-01T08:28:31;6.68;;;2.15;;
77417;SDS011;66490;51.484;0.026;2023-03-01T08:30:56;5.13;;;1.40;;
77417;SDS011;66490;51.484;0.026;2023-03-01T08:33:21;5.80;;;2.40;;
77417;SDS011;66490;51.484;0.026;2023-03-01T08:35:47;6.17;;;1.67;;
77417;SDS011;66490;51.484;0.026;2023-03-01T08:38:12;4.23;;;1.90;;
77417;SDS011;66490;51.484;0.026;2023-03-01T08:40:37;5.25;;;1.75;;
77417;SDS011;66490;51.484;0.026;2023-03-01T08:43:03;6.47;;;1.70;;
77417;SDS011;66490;51.484;0.026;2023-03-01T08:45:28;3.23;;;1.33;;
77417;SDS011;66490;51.484;0.026;2023-03-01T08:47:53;3.30;;;1.60;;
77417;SDS011;66490;51.484;0.026;2023-03-01T08:50:19;6.73;;;2.40;;
77417;SDS011;66490;51.484;0.026;2023-03-01T08:52:44;4.97;;;1.67;;
77417;SDS011;66490;51.484;0.026;2023-03-01T08:55:09;4.23;;;1.80;;
77417;SDS011;66490;51.484;0.026;2023-03-01T08:57:35;7.37;;;1.70;;
77417;SDS011;66490;51.484;0.026;2023-03-01T09:00:00;5.45;;;1.60;;
77417;SDS011;66490;51.484;0.026;2023-03-01T09:02:26;5.30;;;1.70;;
77417;SDS011;66490;51.484;0.026;2023-03-01T09:04:51;5.50;;;2.20;;
77417;SDS011;66490;51.484;0.026;2023-03-01T09:07:16;5.53;;;1.67;;
77417;SDS011;66490;51.484;0.026;2023-03-01T09:09:41;5.90;;;2.27;;
77417;SDS011;66490;51.484;0.026;2023-03-01T09:12:07;4.43;;;1.50;;
77417;SDS011;66490;51.484;0.026;2023-03-01T09:14:32;6.30;;;1.85;;
77417;SDS011;66490;51.484;0.026;2023-03-01T09:16:57;7.43;;;1.77;;
77417;SDS011;66490;51.484;0.026;2023-03-01T09:19:23;5.43;;;1.60;;
77417;SDS011;66490;51.484;0.026;2023-03-01T09:21:48;7.77;;;1.47;;
77417;SDS011;66490;51.484;0.026;2023-03-01T09:24:21;6.40;;;2.13;;
77417;SDS011;66490;51.484;0.026;2023-03-01T09:26:47;11.65;;;2.67;;
77417;SDS011;66490;51.484;0.026;2023-03-01T09:29:13;13.43;;;2.43;;
77417;SDS011;66490;51.484;0.026;2023-03-01T09:31:39;14.48;;;2.47;;
77417;SDS011;66490;51.484;0.026;2023-03-01T09:34:04;7.27;;;1.70;;
77417;SDS011;66490;51.484;0.026;2023-03-01T09:36:30;5.40;;;1.77;;
77417;SDS011;66490;51.484;0.026;2023-03-01T09:38:56;6.20;;;1.70;;
77417;SDS011;66490;51.484;0.026;2023-03-01T09:43:57;6.95;;;1.52;;
77417;SDS011;66490;51.484;0.026;2023-03-01T09:46:24;3.40;;;1.20;;
77417;SDS011;66490;51.484;0.026;2023-03-01T09:48:51;3.90;;;1.25;;
77417;SDS011;66490;51.484;0.026;2023-03-01T09:51:19;4.97;;;1.70;;
77417;SDS011;66490;51.484;0.026;2023-03-01T09:53:47;5.60;;;1.20;;
77417;SDS011;66490;51.484;0.026;2023-03-01T09:56:24;7.43;;;1.70;;
77417;SDS011;66490;51.484;0.026;2023-03-01T09:59:07;3.67;;;1.20;;
77417;SDS011;66490;51.484;0.026;2023-03-01T10:04:24;3.78;;;1.50;;
77417;SDS011;66490;51.484;0.026;2023-03-01T10:09:34;12.27;;;2.40;;
77417;SDS011;66490;51.484;0.026;2023-03-01T10:12:01;3.07;;;1.10;;
77417;SDS011;66490;51.484;0.026;2023-03-01T10:16:57;7.68;;;1.63;;
77417;SDS011;66490;51.484;0.026;2023-03-01T10:24:59;10.00;;;1.00;;
77417;SDS011;66490;51.484;0.026;2023-03-01T10:27:34;3.42;;;0.93;;
77417;SDS011;66490;51.484;0.026;2023-03-01T10:32:28;2.83;;;1.30;;
77417;SDS011;66490;51.484;0.026;2023-03-01T10:34:53;7.45;;;0.80;;
77417;SDS011;66490;51.484;0.026;2023-03-01T10:37:19;2.50;;;0.70;;
77417;SDS011;66490;51.484;0.026;2023-03-01T10:39:56;3.80;;;1.10;;
77417;SDS011;66490;51.484;0.026;2023-03-01T10:42:25;4.22;;;1.27;;
77417;SDS011;66490;51.484;0.026;2023-03-01T10:44:50;2.57;;;0.90;;
77417;SDS011;66490;51.484;0.026;2023-03-01T10:47:20;6.83;;;1.13;;
77417;SDS011;66490;51.484;0.026;2023-03-01T10:52:25;3.58;;;0.70;;
77417;SDS011;66490;51.484;0.026;2023-03-01T10:54:55;4.10;;;1.13;;
77417;SDS011;66490;51.484;0.026;2023-03-01T10:57:28;3.70;;;1.08;;
77417;SDS011;66490;51.484;0.026;2023-03-01T11:00:00;3.60;;;0.60;;
77417;SDS011;66490;51.484;0.026;2023-03-01T11:02:29;5.75;;;0.93;;
77417;SDS011;66490;51.484;0.026;2023-03-01T11:07:23;2.00;;;0.80;;
77417;SDS011;66490;51.484;0.026;2023-03-01T11:09:48;4.13;;;1.10;;
77417;SDS011;66490;51.484;0.026;2023-03-01T11:12:14;3.33;;;1.10;;
77417;SDS011;66490;51.484;0.026;2023-03-01T11:14:46;3.72;;;0.90;;
77417;SDS011;66490;51.484;0.026;2023-03-01T11:19:40;4.37;;;0.83;;
77417;SDS011;66490;51.484;0.026;2023-03-01T11:22:08;2.28;;;0.70;;
77417;SDS011;66490;51.484;0.026;2023-03-01T11:24:40;2.60;;;0.70;;
77417;SDS011;66490;51.484;0.026;2023-03-01T11:27:12;3.45;;;1.00;;
77417;SDS011;66490;51.484;0.026;2023-03-01T11:29:41;3.58;;;1.13;;
77417;SDS011;66490;51.484;0.026;2023-03-01T11:32:08;5.47;;;2.30;;
77417;SDS011;66490;51.484;0.026;2023-03-01T11:37:01;3.67;;;1.30;;
77417;SDS011;66490;51.484;0.026;2023-03-01T11:39:32;1.90;;;0.90;;
77417;SDS011;66490;51.484;0.026;2023-03-01T11:42:13;2.08;;;0.70;;
77417;SDS011;66490;51.484;0.026;2023-03-01T11:44:40;2.75;;;1.23;;
77417;SDS011;66490;51.484;0.026;2023-03-01T11:49:42;4.53;;;1.45;;
77417;SDS011;66490;51.484;0.026;2023-03-01T11:57:03;4.50;;;1.63;;
77417;SDS011;66490;51.484;0.026;2023-03-01T12:02:00;4.23;;;1.20;;
77417;SDS011;66490;51.484;0.026;2023-03-01T12:04:39;2.42;;;1.27;;
77417;SDS011;66490;51.484;0.026;2023-03-01T12:10:31;4.88;;;1.63;;
77417;SDS011;66490;51.484;0.026;2023-03-01T12:13:12;3.38;;;1.83;;
77417;SDS011;66490;51.484;0.026;2023-03-01T12:18:29;4.43;;;2.08;;
77417;SDS011;66490;51.484;0.026;2023-03-01T12:49:49;7.75;;;1.48;;
77417;SDS011;66490;51.484;0.026;2023-03-01T12:52:21;5.20;;;1.33;;
77417;SDS011;66490;51.484;0.026;2023-03-01T12:54:48;6.15;;;1.70;;
77417;SDS011;66490;51.484;0.026;2023-03-01T12:57:17;6.40;;;1.92;;
77417;SDS011;66490;51.484;0.026;2023-03-01T13:02:18;5.07;;;1.43;;
77417;SDS011;66490;51.484;0.026;2023-03-01T13:14:59;4.70;;;1.42;;
77417;SDS011;66490;51.484;0.026;2023-03-01T13:17:32;6.80;;;1.57;;
77417;SDS011;66490;51.484;0.026;2023-03-01T13:19:57;4.78;;;1.67;;
77417;SDS011;66490;51.484;0.026;2023-03-01T13:22:28;3.00;;;1.67;;
77417;SDS011;66490;51.484;0.026;2023-03-01T13:25:11;5.35;;;1.35;;
77417;SDS011;66490;51.484;0.026;2023-03-01T13:27:38;5.45;;;1.23;;
77417;SDS011;66490;51.484;0.026;2023-03-01T13:30:03;3.43;;;1.10;;
77417;SDS011;66490;51.484;0.026;2023-03-01T13:32:34;5.32;;;1.80;;
77417;SDS011;66490;51.484;0.026;2023-03-01T13:37:37;2.33;;;1.10;;
77417;SDS011;66490;51.484;0.026;2023-03-01T13:42:54;6.93;;;1.60;;
77417;SDS011;66490;51.484;0.026;2023-03-01T13:47:46;7.97;;;1.20;;
77417;SDS011;66490;51.484;0.026;2023-03-01T13:50:21;4.33;;;1.80;;
77417;SDS011;66490;51.484;0.026;2023-03-01T13:52:48;5.10;;;1.27;;
77417;SDS011;66490;51.484;0.026;2023-03-01T13:58:00;7.13;;;2.28;;
77417;SDS011;66490;51.484;0.026;2023-03-01T14:00:36;6.05;;;1.50;;
77417;SDS011;66490;51.484;0.026;2023-03-01T14:03:08;2.63;;;1.43;;
77417;SDS011;66490;51.484;0.026;2023-03-01T14:05:34;3.72;;;1.20;;
77417;SDS011;66490;51.484;0.026;2023-03-01T14:08:02;3.33;;;1.08;;
77417;SDS011;66490;51.484;0.026;2023-03-01T14:10:31;2.72;;;1.20;;
77417;SDS011;66490;51.484;0.026;2023-03-01T14:13:10;5.10;;;1.60;;
77417;SDS011;66490;51.484;0.026;2023-03-01T14:15:43;6.00;;;1.57;;
77417;SDS011;66490;51.484;0.026;2023-03-01T14:18:21;7.47;;;2.03;;
77417;SDS011;66490;51.484;0.026;2023-03-01T14:20:49;5.57;;;2.08;;
77417;SDS011;66490;51.484;0.026;2023-03-01T14:23:20;4.80;;;1.58;;
77417;SDS011;66490;51.484;0.026;2023-03-01T14:28:15;7.67;;;2.33;;
77417;SDS011;66490;51.484;0.026;2023-03-01T14:30:42;3.08;;;1.40;;
77417;SDS011;66490;51.484;0.026;2023-03-01T14:36:06;6.03;;;1.58;;
77417;SDS011;66490;51.484;0.026;2023-03-01T14:38:37;3.90;;;1.52;;
77417;SDS011;66490;51.484;0.026;2023-03-01T14:41:06;6.00;;;1.83;;
77417;SDS011;66490;51.484;0.026;2023-03-01T14:43:32;5.25;;;1.38;;
77417;SDS011;66490;51.484;0.026;2023-03-01T14:45:58;5.10;;;0.88;;
77417;SDS011;66490;51.484;0.026;2023-03-01T14:48:24;5.13;;;1.23;;
77417;SDS011;66490;51.484;0.026;2023-03-01T14:50:49;3.10;;;1.10;;
77417;SDS011;66490;51.484;0.026;2023-03-01T14:53:20;4.77;;;1.30;;
77417;SDS011;66490;51.484;0.026;2023-03-01T14:55:47;2.78;;;1.13;;
77417;SDS011;66490;51.484;0.026;2023-03-01T14:58:14;3.22;;;1.02;;
77417;SDS011;66490;51.484;0.026;2023-03-01T15:00:47;4.40;;;1.05;;
77417;SDS011;66490;51.484;0.026;2023-03-01T15:03:14;5.95;;;1.15;;
77417;SDS011;66490;51.484;0.026;2023-03-01T15:05:42;2.83;;;0.97;;
77417;SDS011;66490;51.484;0.026;2023-03-01T15:08:11;6.50;;;1.85;;
77417;SDS011;66490;51.484;0.026;2023-03-01T15:10:54;4.50;;;1.52;;
77417;SDS011;66490;51.484;0.026;2023-03-01T15:13:21;4.73;;;1.30;;
77417;SDS011;66490;51.484;0.026;2023-03-01T15:15:47;6.15;;;1.13;;
77417;SDS011;66490;51.484;0.026;2023-03-01T15:20:41;4.43;;;1.00;;
77417;SDS011;66490;51.484;0.026;2023-03-01T15:23:12;6.37;;;1.63;;
77417;SDS011;66490;51.484;0.026;2023-03-01T15:25:43;2.47;;;0.80;;
77417;SDS011;66490;51.484;0.026;2023-03-01T15:28:17;5.68;;;1.23;;
77417;SDS011;66490;51.484;0.026;2023-03-01T15:30:43;5.53;;;1.40;;
77417;SDS011;66490;51.484;0.026;2023-03-01T15:35:52;2.00;;;1.10;;
77417;SDS011;66490;51.484;0.026;2023-03-01T15:40:50;4.57;;;1.55;;
77417;SDS011;66490;51.484;0.026;2023-03-01T15:45:59;3.73;;;1.07;;
77417;SDS011;66490;51.484;0.026;2023-03-01T15:48:25;7.43;;;1.50;;
77417;SDS011;66490;51.484;0.026;2023-03-01T15:50:57;4.13;;;1.50;;
77417;SDS011;66490;51.484;0.026;2023-03-01T15:53:23;5.50;;;1.50;;
77417;SDS011;66490;51.484;0.026;2023-03-01T15:55:49;5.28;;;1.25;;
77417;SDS011;66490;51.484;0.026;2023-03-01T15:58:17;5.77;;;1.10;;
77417;SDS011;66490;51.484;0.026;2023-03-01T16:00:43;4.88;;;1.23;;
77417;SDS011;66490;51.484;0.026;2023-03-01T16:03:10;5.32;;;1.42;;
77417;SDS011;66490;51.484;0.026;2023-03-01T16:05:37;6.60;;;1.77;;
77417;SDS011;66490;51.484;0.026;2023-03-01T16:08:03;4.70;;;1.20;;
77417;SDS011;66490;51.484;0.026;2023-03-01T16:10:28;4.87;;;1.37;;
77417;SDS011;66490;51.484;0.026;2023-03-01T16:12:54;2.87;;;0.90;;
77417;SDS011;66490;51.484;0.026;2023-03-01T16:17:48;4.10;;;1.30;;
77417;SDS011;66490;51.484;0.026;2023-03-01T16:20:14;5.20;;;1.20;;
77417;SDS011;66490;51.484;0.026;2023-03-01T16:22:42;3.85;;;1.27;;
77417;SDS011;66490;51.484;0.026;2023-03-01T16:25:12;6.00;;;1.58;;
77417;SDS011;66490;51.484;0.026;2023-03-01T16:27:38;5.70;;;2.78;;
77417;SDS011;66490;51.484;0.026;2023-03-01T16:30:04;6.80;;;2.00;;
77417;SDS011;66490;51.484;0.026;2023-03-01T16:32:30;3.53;;;1.50;;
77417;SDS011;66490;51.484;0.026;2023-03-01T16:34:55;6.13;;;1.60;;
77417;SDS011;66490;51.484;0.026;2023-03-01T16:37:20;4.30;;;1.67;;
77417;SDS011;66490;51.484;0.026;2023-03-01T16:39:47;4.43;;;1.60;;
77417;SDS011;66490;51.484;0.026;2023-03-01T16:42:14;5.20;;;1.42;;
77417;SDS011;66490;51.484;0.026;2023-03-01T16:44:39;3.83;;;1.37;;
77417;SDS011;66490;51.484;0.026;2023-03-01T16:47:05;6.93;;;2.50;;
77417;SDS011;66490;51.484;0.026;2023-03-01T16:49:30;6.37;;;2.33;;
77417;SDS011;66490;51.484;0.026;2023-03-01T16:51:56;7.13;;;2.67;;